sensor_id;sensor_type;location;lat;lon;timestamp;P1;durP1;ratioP1;P2;durP2;ratioP2
1925;SDS011;964;42.606;23.588;2024-01-11T00:01:33;32.40;;;14.23;;
1925;SDS011;964;42.606;23.588;2024-01-11T00:04:01;33.83;;;16.53;;
1925;SDS011;964;42.606;23.588;2024-01-11T00:06:28;45.33;;;17.33;;
1925;SDS011;964;42.606;23.588;2024-01-11T00:08:55;29.17;;;14.67;;
1925;SDS011;964;42.606;23.588;2024-01-11T00:11:22;44.73;;;22.27;;
1925;SDS011;964;42.606;23.588;2024-01-11T00:13:48;45.37;;;23.07;;
1925;SDS011;964;42.606;23.588;2024-01-11T00:16:15;46.40;;;22.37;;
1925;SDS011;964;42.606;23.588;2024-01-11T00:18:42;35.57;;;18.27;;
1925;SDS011;964;42.606;23.588;2024-01-11T00:21:11;53.27;;;20.50;;
1925;SDS011;964;42.606;23.588;2024-01-11T00:23:38;53.00;;;20.07;;
1925;SDS011;964;42.606;23.588;2024-01-11T00:26:04;60.87;;;24.80;;
1925;SDS011;964;42.606;23.588;2024-01-11T00:28:31;31.73;;;16.93;;
1925;SDS011;964;42.606;23.588;2024-01-11T00:30:58;38.27;;;20.00;;
1925;SDS011;964;42.606;23.588;2024-01-11T00:33:25;41.07;;;21.40;;
1925;SDS011;964;42.606;23.588;2024-01-11T00:35:52;37.97;;;21.93;;
1925;SDS011;964;42.606;23.588;2024-01-11T00:38:20;55.03;;;28.07;;
1925;SDS011;964;42.606;23.588;2024-01-11T00:40:47;58.10;;;23.60;;
1925;SDS011;964;42.606;23.588;2024-01-11T00:43:14;49.37;;;24.53;;
1925;SDS011;964;42.606;23.588;2024-01-11T00:45:41;44.53;;;23.67;;
1925;SDS011;964;42.606;23.588;2024-01-11T00:48:08;43.93;;;21.40;;
1925;SDS011;964;42.606;23.588;2024-01-11T00:50:34;51.13;;;22.37;;
1925;SDS011;964;42.606;23.588;2024-01-11T00:53:01;36.90;;;21.57;;
1925;SDS011;964;42.606;23.588;2024-01-11T00:55:29;49.47;;;24.10;;
1925;SDS011;964;42.606;23.588;2024-01-11T00:57:56;38.60;;;20.63;;
1925;SDS011;964;42.606;23.588;2024-01-11T01:00:23;43.03;;;21.67;;
1925;SDS011;964;42.606;23.588;2024-01-11T01:02:50;49.23;;;24.37;;
1925;SDS011;964;42.606;23.588;2024-01-11T01:05:16;44.10;;;21.80;;
1925;SDS011;964;42.606;23.588;2024-01-11T01:07:43;53.07;;;24.97;;
1925;SDS011;964;42.606;23.588;2024-01-11T01:10:11;39.63;;;22.10;;
1925;SDS011;964;42.606;23.588;2024-01-11T01:12:39;42.13;;;22.87;;
1925;SDS011;964;42.606;23.588;2024-01-11T01:15:06;62.60;;;26.10;;
1925;SDS011;964;42.606;23.588;2024-01-11T01:17:33;37.97;;;20.33;;
1925;SDS011;964;42.606;23.588;2024-01-11T01:20:00;44.47;;;23.60;;
1925;SDS011;964;42.606;23.588;2024-01-11T01:22:28;44.60;;;21.73;;
1925;SDS011;964;42.606;23.588;2024-01-11T01:24:55;52.47;;;23.03;;
1925;SDS011;964;42.606;23.588;2024-01-11T01:27:21;44.37;;;21.90;;
1925;SDS011;964;42.606;23.588;2024-01-11T01:29:49;44.23;;;22.57;;
1925;SDS011;964;42.606;23.588;2024-01-11T01:32:16;33.77;;;19.17;;
1925;SDS011;964;42.606;23.588;2024-01-11T01:34:43;44.37;;;20.27;;
1925;SDS011;964;42.606;23.588;2024-01-11T01:37:10;47.53;;;22.63;;
1925;SDS011;964;42.606;23.588;2024-01-11T01:39:37;41.23;;;22.93;;
1925;SDS011;964;42.606;23.588;2024-01-11T01:42:04;36.63;;;18.83;;
1925;SDS011;964;42.606;23.588;2024-01-11T01:44:31;49.50;;;22.73;;
1925;SDS011;964;42.606;23.588;2024-01-11T01:46:59;49.60;;;25.10;;
1925;SDS011;964;42.606;23.588;2024-01-11T01:49:26;39.00;;;20.83;;
1925;SDS011;964;42.606;23.588;2024-01-11T01:51:53;41.37;;;21.50;;
1925;SDS011;964;42.606;23.588;2024-01-11T01:54:21;45.10;;;23.30;;
1925;SDS011;964;42.606;23.588;2024-01-11T01:56:49;53.83;;;21.97;;
1925;SDS011;964;42.606;23.588;2024-01-11T01:59:17;40.60;;;19.50;;
1925;SDS011;964;42.606;23.588;2024-01-11T02:01:45;29.03;;;20.30;;
1925;SDS011;964;42.606;23.588;2024-01-11T02:04:13;50.90;;;22.53;;
1925;SDS011;964;42.606;23.588;2024-01-11T02:06:40;48.53;;;22.27;;
1925;SDS011;964;42.606;23.588;2024-01-11T02:09:10;43.53;;;19.27;;
1925;SDS011;964;42.606;23.588;2024-01-11T02:11:38;40.40;;;19.43;;
1925;SDS011;964;42.606;23.588;2024-01-11T02:14:05;38.80;;;17.87;;
1925;SDS011;964;42.606;23.588;2024-01-11T02:16:32;48.77;;;19.30;;
1925;SDS011;964;42.606;23.588;2024-01-11T02:18:59;49.33;;;20.93;;
1925;SDS011;964;42.606;23.588;2024-01-11T02:21:27;54.40;;;22.47;;
1925;SDS011;964;42.606;23.588;2024-01-11T02:24:01;33.23;;;20.60;;
1925;SDS011;964;42.606;23.588;2024-01-11T02:26:29;38.60;;;16.73;;
1925;SDS011;964;42.606;23.588;2024-01-11T02:28:56;35.97;;;17.30;;
1925;SDS011;964;42.606;23.588;2024-01-11T02:31:23;36.20;;;16.93;;
1925;SDS011;964;42.606;23.588;2024-01-11T02:33:51;21.57;;;13.53;;
1925;SDS011;964;42.606;23.588;2024-01-11T02:36:18;39.27;;;17.97;;
1925;SDS011;964;42.606;23.588;2024-01-11T02:38:46;31.60;;;14.40;;
1925;SDS011;964;42.606;23.588;2024-01-11T02:41:15;25.63;;;13.57;;
1925;SDS011;964;42.606;23.588;2024-01-11T02:43:45;29.77;;;14.70;;
1925;SDS011;964;42.606;23.588;2024-01-11T02:46:13;34.43;;;15.60;;
1925;SDS011;964;42.606;23.588;2024-01-11T02:48:40;29.07;;;15.33;;
1925;SDS011;964;42.606;23.588;2024-01-11T02:51:07;36.10;;;17.70;;
1925;SDS011;964;42.606;23.588;2024-01-11T02:53:34;28.97;;;16.80;;
1925;SDS011;964;42.606;23.588;2024-01-11T02:56:00;31.90;;;15.10;;
1925;SDS011;964;42.606;23.588;2024-01-11T02:58:29;35.87;;;16.43;;
1925;SDS011;964;42.606;23.588;2024-01-11T03:00:55;28.40;;;14.40;;
1925;SDS011;964;42.606;23.588;2024-01-11T03:03:22;29.97;;;13.20;;
1925;SDS011;964;42.606;23.588;2024-01-11T03:05:49;25.63;;;12.80;;
1925;SDS011;964;42.606;23.588;2024-01-11T03:08:16;26.03;;;13.83;;
1925;SDS011;964;42.606;23.588;2024-01-11T03:10:43;28.90;;;14.30;;
1925;SDS011;964;42.606;23.588;2024-01-11T03:13:09;23.17;;;13.83;;
1925;SDS011;964;42.606;23.588;2024-01-11T03:15:37;21.50;;;13.50;;
1925;SDS011;964;42.606;23.588;2024-01-11T03:18:04;37.47;;;16.03;;
1925;SDS011;964;42.606;23.588;2024-01-11T03:20:31;38.60;;;14.10;;
1925;SDS011;964;42.606;23.588;2024-01-11T03:22:57;20.33;;;11.43;;
1925;SDS011;964;42.606;23.588;2024-01-11T03:25:24;25.67;;;13.47;;
1925;SDS011;964;42.606;23.588;2024-01-11T03:27:51;33.17;;;15.70;;
1925;SDS011;964;42.606;23.588;2024-01-11T03:30:18;22.70;;;12.47;;
1925;SDS011;964;42.606;23.588;2024-01-11T03:32:46;23.53;;;12.73;;
1925;SDS011;964;42.606;23.588;2024-01-11T03:35:12;23.57;;;13.53;;
1925;SDS011;964;42.606;23.588;2024-01-11T03:37:39;32.90;;;15.00;;
1925;SDS011;964;42.606;23.588;2024-01-11T03:40:06;30.20;;;15.33;;
1925;SDS011;964;42.606;23.588;2024-01-11T03:42:33;28.07;;;14.03;;
1925;SDS011;964;42.606;23.588;2024-01-11T03:45:00;42.47;;;17.03;;
1925;SDS011;964;42.606;23.588;2024-01-11T03:47:28;33.10;;;15.73;;
1925;SDS011;964;42.606;23.588;2024-01-11T03:49:56;30.60;;;16.87;;
1925;SDS011;964;42.606;23.588;2024-01-11T03:52:23;35.13;;;19.07;;
1925;SDS011;964;42.606;23.588;2024-01-11T03:54:50;36.03;;;17.10;;
1925;SDS011;964;42.606;23.588;2024-01-11T03:57:16;40.20;;;17.67;;
1925;SDS011;964;42.606;23.588;2024-01-11T03:59:43;29.20;;;16.43;;
1925;SDS011;964;42.606;23.588;2024-01-11T04:02:10;29.77;;;14.87;;
1925;SDS011;964;42.606;23.588;2024-01-11T04:04:37;24.60;;;13.33;;
1925;SDS011;964;42.606;23.588;2024-01-11T04:07:05;29.63;;;14.73;;
1925;SDS011;964;42.606;23.588;2024-01-11T04:09:31;27.47;;;14.40;;
1925;SDS011;964;42.606;23.588;2024-01-11T04:11:58;29.97;;;12.50;;
1925;SDS011;964;42.606;23.588;2024-01-11T04:14:25;19.57;;;14.10;;
1925;SDS011;964;42.606;23.588;2024-01-11T04:16:52;30.83;;;17.30;;
1925;SDS011;964;42.606;23.588;2024-01-11T04:19:19;26.60;;;14.43;;
1925;SDS011;964;42.606;23.588;2024-01-11T04:21:45;28.77;;;14.70;;
1925;SDS011;964;42.606;23.588;2024-01-11T04:24:13;28.53;;;15.40;;
1925;SDS011;964;42.606;23.588;2024-01-11T04:26:40;31.87;;;15.73;;
1925;SDS011;964;42.606;23.588;2024-01-11T04:29:07;23.20;;;12.30;;
1925;SDS011;964;42.606;23.588;2024-01-11T04:31:33;24.20;;;12.70;;
1925;SDS011;964;42.606;23.588;2024-01-11T04:34:00;20.80;;;12.83;;
1925;SDS011;964;42.606;23.588;2024-01-11T04:36:27;23.83;;;12.90;;
1925;SDS011;964;42.606;23.588;2024-01-11T04:38:54;26.67;;;13.10;;
1925;SDS011;964;42.606;23.588;2024-01-11T04:41:22;19.63;;;13.30;;
1925;SDS011;964;42.606;23.588;2024-01-11T04:43:48;20.53;;;12.27;;
1925;SDS011;964;42.606;23.588;2024-01-11T04:46:15;19.93;;;14.00;;
1925;SDS011;964;42.606;23.588;2024-01-11T04:48:43;20.80;;;11.77;;
1925;SDS011;964;42.606;23.588;2024-01-11T04:51:11;27.27;;;11.50;;
1925;SDS011;964;42.606;23.588;2024-01-11T04:53:39;17.17;;;11.97;;
1925;SDS011;964;42.606;23.588;2024-01-11T04:56:06;23.50;;;12.40;;
1925;SDS011;964;42.606;23.588;2024-01-11T04:58:35;18.87;;;11.83;;
1925;SDS011;964;42.606;23.588;2024-01-11T05:01:03;23.97;;;12.50;;
1925;SDS011;964;42.606;23.588;2024-01-11T05:03:30;26.27;;;13.07;;
1925;SDS011;964;42.606;23.588;2024-01-11T05:05:57;28.30;;;12.20;;
1925;SDS011;964;42.606;23.588;2024-01-11T05:08:24;23.17;;;12.30;;
1925;SDS011;964;42.606;23.588;2024-01-11T05:10:51;22.87;;;13.33;;
1925;SDS011;964;42.606;23.588;2024-01-11T05:13:18;22.33;;;11.00;;
1925;SDS011;964;42.606;23.588;2024-01-11T05:15:46;30.60;;;15.63;;
1925;SDS011;964;42.606;23.588;2024-01-11T05:18:13;45.50;;;18.43;;
1925;SDS011;964;42.606;23.588;2024-01-11T05:20:40;22.77;;;13.67;;
1925;SDS011;964;42.606;23.588;2024-01-11T05:23:07;31.87;;;12.57;;
1925;SDS011;964;42.606;23.588;2024-01-11T05:25:34;20.60;;;11.07;;
1925;SDS011;964;42.606;23.588;2024-01-11T05:28:01;28.33;;;11.83;;
1925;SDS011;964;42.606;23.588;2024-01-11T05:30:28;33.27;;;14.40;;
1925;SDS011;964;42.606;23.588;2024-01-11T05:32:56;20.23;;;11.97;;
1925;SDS011;964;42.606;23.588;2024-01-11T05:35:23;31.37;;;12.30;;
1925;SDS011;964;42.606;23.588;2024-01-11T05:37:52;31.50;;;15.07;;
1925;SDS011;964;42.606;23.588;2024-01-11T05:40:19;24.10;;;14.83;;
1925;SDS011;964;42.606;23.588;2024-01-11T05:42:46;23.13;;;14.60;;
1925;SDS011;964;42.606;23.588;2024-01-11T05:45:13;30.00;;;11.90;;
1925;SDS011;964;42.606;23.588;2024-01-11T05:47:42;22.70;;;10.03;;
1925;SDS011;964;42.606;23.588;2024-01-11T05:50:10;19.30;;;12.40;;
1925;SDS011;964;42.606;23.588;2024-01-11T05:52:37;22.67;;;13.30;;
1925;SDS011;964;42.606;23.588;2024-01-11T05:55:05;27.47;;;13.30;;
1925;SDS011;964;42.606;23.588;2024-01-11T05:57:32;17.97;;;11.23;;
1925;SDS011;964;42.606;23.588;2024-01-11T05:59:58;22.93;;;11.70;;
1925;SDS011;964;42.606;23.588;2024-01-11T06:02:25;25.57;;;13.33;;
1925;SDS011;964;42.606;23.588;2024-01-11T06:04:52;26.27;;;12.13;;
1925;SDS011;964;42.606;23.588;2024-01-11T06:07:20;22.43;;;12.13;;
1925;SDS011;964;42.606;23.588;2024-01-11T06:09:47;15.20;;;10.70;;
1925;SDS011;964;42.606;23.588;2024-01-11T06:12:14;17.97;;;9.77;;
1925;SDS011;964;42.606;23.588;2024-01-11T06:14:40;23.87;;;11.37;;
1925;SDS011;964;42.606;23.588;2024-01-11T06:17:07;22.70;;;12.60;;
1925;SDS011;964;42.606;23.588;2024-01-11T06:19:36;23.00;;;12.43;;
1925;SDS011;964;42.606;23.588;2024-01-11T06:22:03;15.27;;;9.23;;
1925;SDS011;964;42.606;23.588;2024-01-11T06:24:32;21.90;;;11.23;;
1925;SDS011;964;42.606;23.588;2024-01-11T06:26:58;21.20;;;10.50;;
1925;SDS011;964;42.606;23.588;2024-01-11T06:29:25;29.13;;;14.33;;
1925;SDS011;964;42.606;23.588;2024-01-11T06:31:52;27.00;;;13.30;;
1925;SDS011;964;42.606;23.588;2024-01-11T06:34:19;20.57;;;11.27;;
1925;SDS011;964;42.606;23.588;2024-01-11T06:36:45;20.60;;;12.37;;
1925;SDS011;964;42.606;23.588;2024-01-11T06:39:12;26.17;;;13.37;;
1925;SDS011;964;42.606;23.588;2024-01-11T06:41:40;25.93;;;13.87;;
1925;SDS011;964;42.606;23.588;2024-01-11T06:44:07;18.57;;;10.90;;
1925;SDS011;964;42.606;23.588;2024-01-11T06:46:35;23.60;;;13.47;;
1925;SDS011;964;42.606;23.588;2024-01-11T06:49:04;31.93;;;13.23;;
1925;SDS011;964;42.606;23.588;2024-01-11T06:51:31;24.60;;;11.77;;
1925;SDS011;964;42.606;23.588;2024-01-11T06:53:58;30.23;;;15.53;;
1925;SDS011;964;42.606;23.588;2024-01-11T06:56:26;33.07;;;17.30;;
1925;SDS011;964;42.606;23.588;2024-01-11T06:58:55;27.00;;;15.37;;
1925;SDS011;964;42.606;23.588;2024-01-11T07:01:22;21.70;;;13.70;;
1925;SDS011;964;42.606;23.588;2024-01-11T07:03:49;24.17;;;13.77;;
1925;SDS011;964;42.606;23.588;2024-01-11T07:06:16;23.80;;;13.80;;
1925;SDS011;964;42.606;23.588;2024-01-11T07:08:43;22.97;;;14.40;;
1925;SDS011;964;42.606;23.588;2024-01-11T07:11:10;25.93;;;14.73;;
1925;SDS011;964;42.606;23.588;2024-01-11T07:13:37;23.60;;;13.60;;
1925;SDS011;964;42.606;23.588;2024-01-11T07:16:05;29.37;;;15.33;;
1925;SDS011;964;42.606;23.588;2024-01-11T07:18:32;27.20;;;16.00;;
1925;SDS011;964;42.606;23.588;2024-01-11T07:20:59;25.93;;;18.30;;
1925;SDS011;964;42.606;23.588;2024-01-11T07:23:26;23.93;;;16.33;;
1925;SDS011;964;42.606;23.588;2024-01-11T07:25:53;26.10;;;16.97;;
1925;SDS011;964;42.606;23.588;2024-01-11T07:28:20;24.93;;;16.57;;
1925;SDS011;964;42.606;23.588;2024-01-11T07:30:50;27.73;;;16.30;;
1925;SDS011;964;42.606;23.588;2024-01-11T07:33:19;24.63;;;15.90;;
1925;SDS011;964;42.606;23.588;2024-01-11T07:35:46;23.10;;;16.87;;
1925;SDS011;964;42.606;23.588;2024-01-11T07:38:13;36.80;;;20.80;;
1925;SDS011;964;42.606;23.588;2024-01-11T07:40:40;40.17;;;25.23;;
1925;SDS011;964;42.606;23.588;2024-01-11T07:43:07;28.90;;;20.10;;
1925;SDS011;964;42.606;23.588;2024-01-11T07:45:34;31.23;;;20.33;;
1925;SDS011;964;42.606;23.588;2024-01-11T07:48:01;28.33;;;18.23;;
1925;SDS011;964;42.606;23.588;2024-01-11T07:50:30;28.80;;;17.07;;
1925;SDS011;964;42.606;23.588;2024-01-11T07:52:57;21.60;;;16.53;;
1925;SDS011;964;42.606;23.588;2024-01-11T07:55:24;26.10;;;18.50;;
1925;SDS011;964;42.606;23.588;2024-01-11T07:57:51;31.30;;;20.00;;
1925;SDS011;964;42.606;23.588;2024-01-11T08:00:18;26.53;;;17.27;;
1925;SDS011;964;42.606;23.588;2024-01-11T08:02:45;31.50;;;20.50;;
1925;SDS011;964;42.606;23.588;2024-01-11T08:05:12;31.53;;;19.40;;
1925;SDS011;964;42.606;23.588;2024-01-11T08:07:40;28.63;;;19.90;;
1925;SDS011;964;42.606;23.588;2024-01-11T08:10:08;31.70;;;18.80;;
1925;SDS011;964;42.606;23.588;2024-01-11T08:12:35;26.70;;;19.90;;
1925;SDS011;964;42.606;23.588;2024-01-11T08:15:02;26.33;;;18.67;;
1925;SDS011;964;42.606;23.588;2024-01-11T08:17:30;27.57;;;19.50;;
1925;SDS011;964;42.606;23.588;2024-01-11T08:19:56;28.60;;;19.50;;
1925;SDS011;964;42.606;23.588;2024-01-11T08:22:23;28.07;;;19.87;;
1925;SDS011;964;42.606;23.588;2024-01-11T08:24:52;27.30;;;19.93;;
1925;SDS011;964;42.606;23.588;2024-01-11T08:27:18;29.67;;;18.97;;
1925;SDS011;964;42.606;23.588;2024-01-11T08:29:45;23.93;;;17.50;;
1925;SDS011;964;42.606;23.588;2024-01-11T08:32:12;23.90;;;17.70;;
1925;SDS011;964;42.606;23.588;2024-01-11T08:34:39;22.67;;;17.53;;
1925;SDS011;964;42.606;23.588;2024-01-11T08:37:06;22.33;;;16.00;;
1925;SDS011;964;42.606;23.588;2024-01-11T08:39:33;21.93;;;14.97;;
1925;SDS011;964;42.606;23.588;2024-01-11T08:42:01;16.50;;;11.80;;
1925;SDS011;964;42.606;23.588;2024-01-11T08:44:29;15.77;;;11.97;;
1925;SDS011;964;42.606;23.588;2024-01-11T08:46:56;19.97;;;13.30;;
1925;SDS011;964;42.606;23.588;2024-01-11T08:49:24;19.27;;;14.10;;
1925;SDS011;964;42.606;23.588;2024-01-11T08:51:51;19.67;;;15.00;;
1925;SDS011;964;42.606;23.588;2024-01-11T08:54:18;21.30;;;14.33;;
1925;SDS011;964;42.606;23.588;2024-01-11T08:56:46;20.00;;;13.77;;
1925;SDS011;964;42.606;23.588;2024-01-11T08:59:15;17.67;;;13.43;;
1925;SDS011;964;42.606;23.588;2024-01-11T09:01:41;21.43;;;15.17;;
1925;SDS011;964;42.606;23.588;2024-01-11T09:04:08;19.97;;;14.23;;
1925;SDS011;964;42.606;23.588;2024-01-11T09:06:35;19.87;;;15.03;;
1925;SDS011;964;42.606;23.588;2024-01-11T09:09:02;20.33;;;16.07;;
1925;SDS011;964;42.606;23.588;2024-01-11T09:11:35;19.90;;;15.63;;
1925;SDS011;964;42.606;23.588;2024-01-11T09:14:02;24.23;;;14.60;;
1925;SDS011;964;42.606;23.588;2024-01-11T09:16:30;19.80;;;14.13;;
1925;SDS011;964;42.606;23.588;2024-01-11T09:18:58;17.77;;;13.53;;
1925;SDS011;964;42.606;23.588;2024-01-11T09:21:26;22.50;;;16.40;;
1925;SDS011;964;42.606;23.588;2024-01-11T09:23:53;20.70;;;14.20;;
1925;SDS011;964;42.606;23.588;2024-01-11T09:26:20;19.97;;;14.23;;
1925;SDS011;964;42.606;23.588;2024-01-11T09:28:47;23.07;;;15.33;;
1925;SDS011;964;42.606;23.588;2024-01-11T09:31:14;20.17;;;14.60;;
1925;SDS011;964;42.606;23.588;2024-01-11T09:33:42;15.83;;;13.77;;
1925;SDS011;964;42.606;23.588;2024-01-11T09:36:10;18.93;;;14.30;;
1925;SDS011;964;42.606;23.588;2024-01-11T09:38:38;18.33;;;13.53;;
1925;SDS011;964;42.606;23.588;2024-01-11T09:41:06;19.20;;;13.90;;
1925;SDS011;964;42.606;23.588;2024-01-11T09:43:34;18.00;;;12.97;;
1925;SDS011;964;42.606;23.588;2024-01-11T09:46:03;20.87;;;16.13;;
1925;SDS011;964;42.606;23.588;2024-01-11T09:48:31;18.37;;;13.67;;
1925;SDS011;964;42.606;23.588;2024-01-11T09:51:00;19.70;;;14.70;;
1925;SDS011;964;42.606;23.588;2024-01-11T09:53:28;21.17;;;15.17;;
1925;SDS011;964;42.606;23.588;2024-01-11T09:55:58;19.67;;;13.93;;
1925;SDS011;964;42.606;23.588;2024-01-11T09:58:25;22.70;;;14.60;;
1925;SDS011;964;42.606;23.588;2024-01-11T10:00:53;16.53;;;13.57;;
1925;SDS011;964;42.606;23.588;2024-01-11T10:03:21;19.87;;;14.50;;
1925;SDS011;964;42.606;23.588;2024-01-11T10:05:49;20.23;;;14.83;;
1925;SDS011;964;42.606;23.588;2024-01-11T10:08:18;22.90;;;16.10;;
1925;SDS011;964;42.606;23.588;2024-01-11T10:10:49;20.07;;;14.23;;
1925;SDS011;964;42.606;23.588;2024-01-11T10:13:15;24.63;;;14.93;;
1925;SDS011;964;42.606;23.588;2024-01-11T10:15:42;22.20;;;15.00;;
1925;SDS011;964;42.606;23.588;2024-01-11T10:18:10;22.53;;;15.07;;
1925;SDS011;964;42.606;23.588;2024-01-11T10:20:37;22.20;;;14.13;;
1925;SDS011;964;42.606;23.588;2024-01-11T10:23:04;23.10;;;15.23;;
1925;SDS011;964;42.606;23.588;2024-01-11T10:25:32;20.73;;;14.60;;
1925;SDS011;964;42.606;23.588;2024-01-11T10:27:59;24.00;;;14.60;;
1925;SDS011;964;42.606;23.588;2024-01-11T10:30:26;21.63;;;15.13;;
1925;SDS011;964;42.606;23.588;2024-01-11T10:32:53;17.63;;;12.30;;
1925;SDS011;964;42.606;23.588;2024-01-11T10:35:20;15.57;;;11.57;;
1925;SDS011;964;42.606;23.588;2024-01-11T10:37:48;15.60;;;12.00;;
1925;SDS011;964;42.606;23.588;2024-01-11T10:40:18;16.20;;;12.10;;
1925;SDS011;964;42.606;23.588;2024-01-11T10:42:51;20.90;;;11.93;;
1925;SDS011;964;42.606;23.588;2024-01-11T10:45:19;15.10;;;11.30;;
1925;SDS011;964;42.606;23.588;2024-01-11T10:47:50;16.50;;;12.07;;
1925;SDS011;964;42.606;23.588;2024-01-11T10:50:21;17.57;;;12.80;;
1925;SDS011;964;42.606;23.588;2024-01-11T10:53:02;16.67;;;12.80;;
1925;SDS011;964;42.606;23.588;2024-01-11T10:55:31;19.93;;;12.97;;
1925;SDS011;964;42.606;23.588;2024-01-11T10:58:02;18.57;;;13.17;;
1925;SDS011;964;42.606;23.588;2024-01-11T11:00:30;15.87;;;11.97;;
1925;SDS011;964;42.606;23.588;2024-01-11T11:02:58;15.53;;;12.43;;
1925;SDS011;964;42.606;23.588;2024-01-11T11:05:27;15.30;;;11.87;;
1925;SDS011;964;42.606;23.588;2024-01-11T11:07:55;16.47;;;11.90;;
1925;SDS011;964;42.606;23.588;2024-01-11T11:10:24;17.83;;;11.83;;
1925;SDS011;964;42.606;23.588;2024-01-11T11:12:53;19.40;;;12.87;;
1925;SDS011;964;42.606;23.588;2024-01-11T11:15:24;18.07;;;12.77;;
1925;SDS011;964;42.606;23.588;2024-01-11T11:17:53;20.87;;;13.23;;
1925;SDS011;964;42.606;23.588;2024-01-11T11:20:20;15.47;;;11.60;;
1925;SDS011;964;42.606;23.588;2024-01-11T11:22:48;17.50;;;14.00;;
1925;SDS011;964;42.606;23.588;2024-01-11T11:25:29;17.30;;;12.30;;
1925;SDS011;964;42.606;23.588;2024-01-11T11:27:57;21.80;;;12.50;;
1925;SDS011;964;42.606;23.588;2024-01-11T11:30:27;17.10;;;13.27;;
1925;SDS011;964;42.606;23.588;2024-01-11T11:32:54;19.33;;;13.33;;
1925;SDS011;964;42.606;23.588;2024-01-11T11:35:22;17.23;;;12.80;;
1925;SDS011;964;42.606;23.588;2024-01-11T11:37:53;22.23;;;13.70;;
1925;SDS011;964;42.606;23.588;2024-01-11T11:40:21;26.03;;;13.63;;
1925;SDS011;964;42.606;23.588;2024-01-11T11:42:58;17.20;;;13.27;;
1925;SDS011;964;42.606;23.588;2024-01-11T11:45:28;18.23;;;14.10;;
1925;SDS011;964;42.606;23.588;2024-01-11T11:47:56;20.63;;;14.30;;
1925;SDS011;964;42.606;23.588;2024-01-11T11:50:23;19.97;;;13.07;;
1925;SDS011;964;42.606;23.588;2024-01-11T11:52:53;22.77;;;12.40;;
1925;SDS011;964;42.606;23.588;2024-01-11T11:55:21;16.53;;;13.40;;
1925;SDS011;964;42.606;23.588;2024-01-11T11:57:49;22.00;;;12.30;;
1925;SDS011;964;42.606;23.588;2024-01-11T12:00:16;21.97;;;13.30;;
1925;SDS011;964;42.606;23.588;2024-01-11T12:02:44;18.73;;;12.97;;
1925;SDS011;964;42.606;23.588;2024-01-11T12:05:13;16.60;;;12.30;;
1925;SDS011;964;42.606;23.588;2024-01-11T12:07:40;16.63;;;11.30;;
1925;SDS011;964;42.606;23.588;2024-01-11T12:10:07;20.33;;;12.00;;
1925;SDS011;964;42.606;23.588;2024-01-11T12:12:34;19.50;;;13.00;;
1925;SDS011;964;42.606;23.588;2024-01-11T12:15:02;18.43;;;13.00;;
1925;SDS011;964;42.606;23.588;2024-01-11T12:17:30;20.27;;;13.80;;
1925;SDS011;964;42.606;23.588;2024-01-11T12:19:58;17.70;;;13.37;;
1925;SDS011;964;42.606;23.588;2024-01-11T12:22:25;17.43;;;12.50;;
1925;SDS011;964;42.606;23.588;2024-01-11T12:24:52;16.43;;;12.77;;
1925;SDS011;964;42.606;23.588;2024-01-11T12:27:19;19.10;;;12.97;;
1925;SDS011;964;42.606;23.588;2024-01-11T12:29:46;15.70;;;11.33;;
1925;SDS011;964;42.606;23.588;2024-01-11T12:32:14;15.87;;;11.57;;
1925;SDS011;964;42.606;23.588;2024-01-11T12:34:42;15.23;;;11.67;;
1925;SDS011;964;42.606;23.588;2024-01-11T12:37:12;17.70;;;12.50;;
1925;SDS011;964;42.606;23.588;2024-01-11T12:39:39;19.47;;;13.40;;
1925;SDS011;964;42.606;23.588;2024-01-11T12:42:06;15.80;;;11.60;;
1925;SDS011;964;42.606;23.588;2024-01-11T12:44:34;15.73;;;12.10;;
1925;SDS011;964;42.606;23.588;2024-01-11T12:47:03;16.97;;;11.90;;
1925;SDS011;964;42.606;23.588;2024-01-11T12:49:31;15.33;;;11.60;;
1925;SDS011;964;42.606;23.588;2024-01-11T12:51:58;18.30;;;11.23;;
1925;SDS011;964;42.606;23.588;2024-01-11T12:54:26;14.73;;;8.83;;
1925;SDS011;964;42.606;23.588;2024-01-11T12:56:53;11.33;;;9.53;;
1925;SDS011;964;42.606;23.588;2024-01-11T12:59:20;13.83;;;9.73;;
1925;SDS011;964;42.606;23.588;2024-01-11T13:01:52;16.30;;;11.60;;
1925;SDS011;964;42.606;23.588;2024-01-11T13:04:19;19.60;;;10.57;;
1925;SDS011;964;42.606;23.588;2024-01-11T13:06:46;13.13;;;9.83;;
1925;SDS011;964;42.606;23.588;2024-01-11T13:09:13;13.67;;;9.37;;
1925;SDS011;964;42.606;23.588;2024-01-11T13:11:42;16.33;;;11.33;;
1925;SDS011;964;42.606;23.588;2024-01-11T13:14:09;15.30;;;11.20;;
1925;SDS011;964;42.606;23.588;2024-01-11T13:16:43;15.30;;;10.03;;
1925;SDS011;964;42.606;23.588;2024-01-11T13:19:10;13.87;;;9.17;;
1925;SDS011;964;42.606;23.588;2024-01-11T13:21:37;11.23;;;8.50;;
1925;SDS011;964;42.606;23.588;2024-01-11T13:24:04;14.43;;;9.10;;
1925;SDS011;964;42.606;23.588;2024-01-11T13:26:32;14.13;;;8.53;;
1925;SDS011;964;42.606;23.588;2024-01-11T13:29:01;14.00;;;9.20;;
1925;SDS011;964;42.606;23.588;2024-01-11T13:31:28;12.17;;;8.87;;
1925;SDS011;964;42.606;23.588;2024-01-11T13:33:55;18.40;;;8.80;;
1925;SDS011;964;42.606;23.588;2024-01-11T13:36:21;15.37;;;9.43;;
1925;SDS011;964;42.606;23.588;2024-01-11T13:38:49;13.87;;;9.27;;
1925;SDS011;964;42.606;23.588;2024-01-11T13:41:16;15.17;;;9.27;;
1925;SDS011;964;42.606;23.588;2024-01-11T13:43:43;12.87;;;9.03;;
1925;SDS011;964;42.606;23.588;2024-01-11T13:46:11;16.17;;;9.80;;
1925;SDS011;964;42.606;23.588;2024-01-11T13:48:41;16.10;;;10.00;;
1925;SDS011;964;42.606;23.588;2024-01-11T13:51:08;16.30;;;10.20;;
1925;SDS011;964;42.606;23.588;2024-01-11T13:53:38;17.17;;;10.80;;
1925;SDS011;964;42.606;23.588;2024-01-11T13:56:05;16.23;;;10.60;;
1925;SDS011;964;42.606;23.588;2024-01-11T13:58:32;16.70;;;9.90;;
1925;SDS011;964;42.606;23.588;2024-01-11T14:00:59;18.00;;;9.60;;
1925;SDS011;964;42.606;23.588;2024-01-11T14:03:27;12.83;;;10.33;;
1925;SDS011;964;42.606;23.588;2024-01-11T14:05:54;19.50;;;10.60;;
1925;SDS011;964;42.606;23.588;2024-01-11T14:08:21;18.90;;;11.17;;
1925;SDS011;964;42.606;23.588;2024-01-11T14:10:48;14.60;;;9.50;;
1925;SDS011;964;42.606;23.588;2024-01-11T14:13:15;17.47;;;9.80;;
1925;SDS011;964;42.606;23.588;2024-01-11T14:15:42;17.73;;;9.87;;
1925;SDS011;964;42.606;23.588;2024-01-11T14:18:09;18.07;;;9.63;;
1925;SDS011;964;42.606;23.588;2024-01-11T14:20:38;17.20;;;10.60;;
1925;SDS011;964;42.606;23.588;2024-01-11T14:23:05;11.70;;;8.80;;
1925;SDS011;964;42.606;23.588;2024-01-11T14:25:31;16.97;;;10.80;;
1925;SDS011;964;42.606;23.588;2024-01-11T14:27:58;21.23;;;11.00;;
1925;SDS011;964;42.606;23.588;2024-01-11T14:30:25;15.37;;;10.50;;
1925;SDS011;964;42.606;23.588;2024-01-11T14:32:52;16.40;;;9.83;;
1925;SDS011;964;42.606;23.588;2024-01-11T14:35:19;14.90;;;9.07;;
1925;SDS011;964;42.606;23.588;2024-01-11T14:37:48;18.53;;;9.80;;
1925;SDS011;964;42.606;23.588;2024-01-11T14:40:15;17.33;;;10.20;;
1925;SDS011;964;42.606;23.588;2024-01-11T14:42:42;16.97;;;10.87;;
1925;SDS011;964;42.606;23.588;2024-01-11T14:45:09;20.83;;;11.00;;
1925;SDS011;964;42.606;23.588;2024-01-11T14:47:36;17.30;;;9.90;;
1925;SDS011;964;42.606;23.588;2024-01-11T14:50:03;17.40;;;10.80;;